Time;durP1;ratioP1;P1;durP2;ratioP2;P2;SDS_P1;SDS_P2;PMS_P1;PMS_P2;Temp;Humidity;BMP_temperature;BMP_pressure;BME280_temperature;BME280_humidity;BME280_pressure;Samples;Min_cycle;Max_cycle;Signal;HPM_P1;HPM_P2
2021/01/02 00:00:04;;;;;;;20.02;12.20;;;;;;;;;;4992964;28;20476;-69
2021/01/02 00:02:41;;;;;;;19.48;12.88;;;;;;;;;;4977291;28;20050;-69
2021/01/02 00:05:09;;;;;;;22.33;13.40;;;;;;;;;;4992561;28;20100;-69
2021/01/02 00:07:56;;;;;;;19.38;13.18;;;;;;;;;;4957595;28;20062;-69
2021/01/02 00:10:24;;;;;;;22.75;14.02;;;;;;;;;;4974369;28;20537;-69
2021/01/02 00:13:29;;;;;;;24.80;14.43;;;;;;;;;;4957213;28;20502;-69
2021/01/02 00:16:13;;;;;;;27.80;15.70;;;;;;;;;;4954986;28;20130;-69
2021/01/02 00:18:58;;;;;;;27.48;14.82;;;;;;;;;;4974099;28;20125;-69
2021/01/02 00:21:26;;;;;;;23.63;15.10;;;;;;;;;;4973305;28;20078;-69
2021/01/02 00:24:04;;;;;;;24.95;15.88;;;;;;;;;;4956483;28;20461;-69
2021/01/02 00:26:36;;;;;;;24.13;14.82;;;;;;;;;;4973805;28;20109;-69
2021/01/02 00:29:04;;;;;;;26.40;15.32;;;;;;;;;;4972935;28;20109;-69
2021/01/02 00:32:14;;;;;;;25.20;14.02;;;;;;;;;;4940963;28;20125;-69
2021/01/02 00:35:02;;;;;;;24.17;13.35;;;;;;;;;;4957065;28;20086;-69
2021/01/02 00:37:38;;;;;;;26.15;12.75;;;;;;;;;;4973745;28;20174;-69
2021/01/02 00:40:08;;;;;;;25.38;12.57;;;;;;;;;;4972711;28;20058;-69
2021/01/02 00:42:35;;;;;;;20.30;12.70;;;;;;;;;;4951393;28;20054;-69
2021/01/02 00:45:02;;;;;;;24.02;13.40;;;;;;;;;;4993262;28;20109;-69
2021/01/02 00:47:32;;;;;;;28.55;15.25;;;;;;;;;;4971928;28;20039;-70
2021/01/02 00:49:58;;;;;;;31.00;15.55;;;;;;;;;;4972676;28;20222;-69
2021/01/02 00:52:46;;;;;;;28.52;14.85;;;;;;;;;;4956573;28;20074;-69
2021/01/02 00:55:24;;;;;;;29.38;16.25;;;;;;;;;;4973484;28;20106;-69
2021/01/02 00:57:58;;;;;;;30.05;15.20;;;;;;;;;;4973191;28;20119;-69
2021/01/02 01:00:29;;;;;;;31.65;15.38;;;;;;;;;;4972419;28;20082;-69
2021/01/02 01:03:02;;;;;;;30.67;14.75;;;;;;;;;;4956234;28;20054;-69
2021/01/02 01:05:36;;;;;;;32.17;14.82;;;;;;;;;;4972048;28;20050;-69
2021/01/02 01:08:03;;;;;;;27.98;14.45;;;;;;;;;;4956610;28;20105;-70
2021/01/02 01:10:31;;;;;;;26.70;14.05;;;;;;;;;;4956376;28;20050;-70
2021/01/02 01:13:00;;;;;;;26.85;14.38;;;;;;;;;;4972215;28;20101;-70
2021/01/02 01:15:26;;;;;;;23.23;13.15;;;;;;;;;;4956375;28;20066;-70
2021/01/02 01:18:17;;;;;;;26.90;14.68;;;;;;;;;;4955826;28;20498;-69
2021/01/02 01:20:45;;;;;;;24.63;13.38;;;;;;;;;;4973075;28;20051;-69
2021/01/02 01:23:31;;;;;;;25.50;14.10;;;;;;;;;;4973366;28;20051;-69
2021/01/02 01:26:17;;;;;;;22.05;12.90;;;;;;;;;;4956358;28;20097;-69
2021/01/02 01:28:45;;;;;;;21.70;12.95;;;;;;;;;;4972875;28;20206;-69
2021/01/02 01:31:15;;;;;;;23.42;13.38;;;;;;;;;;4989330;28;20050;-69
2021/01/02 01:33:41;;;;;;;22.15;12.13;;;;;;;;;;4991321;28;20512;-69
2021/01/02 01:36:07;;;;;;;23.70;14.07;;;;;;;;;;4975102;28;20133;-69
2021/01/02 01:38:33;;;;;;;25.23;13.82;;;;;;;;;;4975101;28;20047;-69
2021/01/02 01:41:14;;;;;;;25.33;14.35;;;;;;;;;;4975036;28;20054;-69
2021/01/02 01:43:49;;;;;;;24.40;14.05;;;;;;;;;;4991167;28;20055;-68
2021/01/02 01:46:16;;;;;;;23.88;13.75;;;;;;;;;;4990968;28;20061;-69
2021/01/02 01:49:06;;;;;;;24.08;13.35;;;;;;;;;;4975057;28;20105;-69
2021/01/02 01:51:57;;;;;;;24.55;12.48;;;;;;;;;;4956159;28;20334;-68
2021/01/02 01:54:52;;;;;;;25.00;13.38;;;;;;;;;;4992513;28;20497;-69
2021/01/02 01:57:28;;;;;;;25.00;14.75;;;;;;;;;;4991959;28;20121;-68
2021/01/02 01:59:57;;;;;;;24.25;13.43;;;;;;;;;;4990989;28;20114;-69
2021/01/02 02:02:39;;;;;;;24.95;13.43;;;;;;;;;;4992323;28;20105;-69
2021/01/02 02:05:07;;;;;;;24.48;13.63;;;;;;;;;;4992413;28;20117;-69
2021/01/02 02:08:01;;;;;;;22.30;13.13;;;;;;;;;;4974796;28;20097;-69
2021/01/02 02:10:32;;;;;;;28.85;14.90;;;;;;;;;;4983735;28;20046;-69
2021/01/02 02:13:15;;;;;;;25.65;14.13;;;;;;;;;;4972668;28;20055;-69
2021/01/02 02:15:55;;;;;;;27.20;13.77;;;;;;;;;;4957377;28;20101;-69
2021/01/02 02:18:28;;;;;;;21.92;12.50;;;;;;;;;;4955632;28;20094;-69
2021/01/02 02:20:57;;;;;;;24.30;14.45;;;;;;;;;;4971468;28;20093;-69
2021/01/02 02:23:51;;;;;;;23.00;12.63;;;;;;;;;;4969617;28;20055;-69
2021/01/02 02:26:17;;;;;;;23.95;13.10;;;;;;;;;;4990575;28;20054;-69
2021/01/02 02:28:50;;;;;;;28.73;14.85;;;;;;;;;;4991948;28;20081;-70
2021/01/02 02:31:16;;;;;;;32.17;15.77;;;;;;;;;;4992184;28;20090;-69
2021/01/02 02:33:55;;;;;;;28.00;14.57;;;;;;;;;;4974832;28;20406;-68
2021/01/02 02:36:22;;;;;;;29.23;14.63;;;;;;;;;;4990733;28;20421;-69
2021/01/02 02:38:48;;;;;;;30.35;14.88;;;;;;;;;;4990582;28;20117;-69
2021/01/02 02:41:15;;;;;;;28.77;13.98;;;;;;;;;;4991851;28;20104;-69
2021/01/02 02:43:41;;;;;;;29.92;15.27;;;;;;;;;;4990689;28;20540;-69
2021/01/02 02:46:12;;;;;;;31.35;16.02;;;;;;;;;;4991126;28;20089;-69
2021/01/02 02:48:42;;;;;;;26.55;14.52;;;;;;;;;;4994152;28;20047;-69
2021/01/02 02:51:10;;;;;;;30.63;14.90;;;;;;;;;;4992600;28;20567;-69
2021/01/02 02:53:37;;;;;;;30.98;15.95;;;;;;;;;;4974716;28;20062;-69
2021/01/02 02:56:03;;;;;;;32.83;15.75;;;;;;;;;;4958642;28;20109;-69
2021/01/02 02:58:30;;;;;;;28.50;14.50;;;;;;;;;;4978781;28;20556;-69
2021/01/02 03:00:56;;;;;;;33.35;15.93;;;;;;;;;;4977817;28;20537;-69
2021/01/02 03:03:23;;;;;;;32.70;16.30;;;;;;;;;;4977965;28;20066;-69
2021/01/02 03:05:55;;;;;;;34.25;15.40;;;;;;;;;;4993555;28;20456;-69
2021/01/02 03:08:21;;;;;;;32.27;15.80;;;;;;;;;;4977774;28;20074;-69
2021/01/02 03:10:47;;;;;;;31.52;14.48;;;;;;;;;;4977451;28;20050;-69
2021/01/02 03:13:13;;;;;;;40.88;15.43;;;;;;;;;;4961618;28;20050;-69
2021/01/02 03:15:40;;;;;;;33.90;14.27;;;;;;;;;;4994554;28;20101;-69
2021/01/02 03:18:07;;;;;;;32.70;14.05;;;;;;;;;;4993648;28;20046;-69
2021/01/02 03:20:33;;;;;;;26.63;12.55;;;;;;;;;;4977565;28;20078;-69
2021/01/02 03:23:01;;;;;;;27.38;12.60;;;;;;;;;;4993423;28;20142;-69
2021/01/02 03:25:27;;;;;;;24.73;12.30;;;;;;;;;;4993070;28;20058;-70
2021/01/02 03:27:53;;;;;;;36.05;12.23;;;;;;;;;;4994541;28;20054;-69
2021/01/02 03:30:20;;;;;;;31.95;12.93;;;;;;;;;;4993421;28;20100;-69
2021/01/02 03:32:47;;;;;;;43.65;13.18;;;;;;;;;;4961512;28;20060;-69
2021/01/02 03:35:14;;;;;;;27.00;13.70;;;;;;;;;;4955339;28;20109;-69
2021/01/02 03:37:43;;;;;;;26.40;13.32;;;;;;;;;;4957690;28;20043;-69
2021/01/02 03:40:11;;;;;;;110.47;16.95;;;;;;;;;;4958014;28;20414;-69
2021/01/02 03:42:37;;;;;;;80.03;15.07;;;;;;;;;;4957891;28;20132;-69
2021/01/02 03:45:08;;;;;;;45.70;13.18;;;;;;;;;;4974862;28;20090;-69
2021/01/02 03:47:35;;;;;;;25.73;11.00;;;;;;;;;;4957625;28;20054;-69
2021/01/02 03:50:01;;;;;;;22.13;11.40;;;;;;;;;;4975099;28;20101;-70
2021/01/02 03:52:28;;;;;;;29.77;11.07;;;;;;;;;;4957586;28;20057;-70
2021/01/02 03:54:54;;;;;;;28.60;11.45;;;;;;;;;;4974514;28;20054;-70
2021/01/02 03:57:20;;;;;;;27.83;11.00;;;;;;;;;;4972584;28;20097;-70
2021/01/02 03:59:47;;;;;;;53.13;12.25;;;;;;;;;;4957491;28;20065;-70
2021/01/02 04:02:13;;;;;;;25.35;12.20;;;;;;;;;;4974560;28;20490;-70
2021/01/02 04:04:39;;;;;;;27.08;11.20;;;;;;;;;;4974487;28;20059;-71
2021/01/02 04:07:05;;;;;;;25.92;13.15;;;;;;;;;;4974533;28;20464;-71
2021/01/02 04:09:31;;;;;;;19.95;11.48;;;;;;;;;;4973242;28;20043;-70
2021/01/02 04:11:57;;;;;;;23.10;11.07;;;;;;;;;;4938200;29;20051;-70
2021/01/02 04:14:24;;;;;;;23.50;11.93;;;;;;;;;;4954010;29;20494;-70
2021/01/02 04:16:50;;;;;;;26.27;12.88;;;;;;;;;;4955032;28;20593;-70
2021/01/02 04:19:16;;;;;;;27.35;14.85;;;;;;;;;;4953641;28;20503;-70
2021/01/02 04:21:45;;;;;;;28.38;12.90;;;;;;;;;;4953617;29;20475;-70
2021/01/02 04:24:11;;;;;;;31.40;13.48;;;;;;;;;;4946596;28;20095;-70
2021/01/02 04:26:39;;;;;;;37.83;14.32;;;;;;;;;;4956720;28;20078;-70
2021/01/02 04:29:05;;;;;;;62.70;15.18;;;;;;;;;;4974135;28;20505;-70
2021/01/02 04:31:37;;;;;;;49.58;15.45;;;;;;;;;;4940759;28;20102;-71
2021/01/02 04:34:04;;;;;;;52.53;17.13;;;;;;;;;;4959478;28;20109;-70
2021/01/02 04:36:31;;;;;;;46.75;15.73;;;;;;;;;;4960839;28;20058;-70
2021/01/02 04:38:57;;;;;;;60.83;19.10;;;;;;;;;;4972687;28;20050;-70
2021/01/02 04:41:25;;;;;;;43.33;15.55;;;;;;;;;;4956815;28;20058;-70
2021/01/02 04:43:52;;;;;;;50.35;15.57;;;;;;;;;;4956563;28;20094;-70
2021/01/02 04:46:19;;;;;;;49.97;16.95;;;;;;;;;;4973607;28;20058;-70
2021/01/02 04:48:45;;;;;;;44.17;15.93;;;;;;;;;;4968983;28;20047;-70
2021/01/02 04:51:16;;;;;;;44.50;15.88;;;;;;;;;;4956614;28;20474;-70
2021/01/02 04:53:43;;;;;;;38.83;15.63;;;;;;;;;;4953029;29;20087;-70
2021/01/02 04:56:09;;;;;;;43.85;17.13;;;;;;;;;;4968880;28;20412;-70
2021/01/02 04:58:39;;;;;;;37.13;14.52;;;;;;;;;;4984395;28;20125;-70
2021/01/02 05:01:05;;;;;;;40.97;14.57;;;;;;;;;;4945896;28;20058;-70
2021/01/02 05:03:43;;;;;;;41.92;14.90;;;;;;;;;;4956386;28;20469;-70
2021/01/02 05:06:09;;;;;;;51.22;16.42;;;;;;;;;;4956281;28;20078;-70
2021/01/02 05:08:35;;;;;;;35.28;13.63;;;;;;;;;;4981809;28;20462;-70
2021/01/02 05:11:05;;;;;;;55.58;15.70;;;;;;;;;;4985878;28;20102;-70
2021/01/02 05:13:33;;;;;;;42.92;14.02;;;;;;;;;;4975607;28;20113;-70
2021/01/02 05:16:19;;;;;;;45.08;13.98;;;;;;;;;;4976292;28;20498;-70
2021/01/02 05:18:56;;;;;;;37.17;15.05;;;;;;;;;;5005383;28;20046;-70
2021/01/02 05:21:23;;;;;;;39.92;15.02;;;;;;;;;;4963281;28;20058;-70
2021/01/02 05:24:16;;;;;;;33.10;14.13;;;;;;;;;;4972555;28;20577;-70
2021/01/02 05:26:42;;;;;;;39.97;14.38;;;;;;;;;;4973204;28;20051;-71
2021/01/02 05:29:27;;;;;;;44.80;14.80;;;;;;;;;;4973236;28;20047;-70
2021/01/02 05:31:59;;;;;;;42.00;13.63;;;;;;;;;;5001617;28;20046;-70
2021/01/02 05:34:27;;;;;;;50.03;15.13;;;;;;;;;;5002009;28;20040;-70
2021/01/02 05:37:01;;;;;;;44.47;15.85;;;;;;;;;;5001410;28;20030;-71
2021/01/02 05:39:43;;;;;;;35.67;13.35;;;;;;;;;;5001838;28;20065;-70
2021/01/02 05:42:09;;;;;;;35.08;14.90;;;;;;;;;;5003799;28;20058;-70
2021/01/02 05:44:37;;;;;;;37.55;14.38;;;;;;;;;;4982213;28;20034;-70
2021/01/02 05:47:04;;;;;;;43.75;15.65;;;;;;;;;;4982175;28;20058;-70
2021/01/02 05:49:40;;;;;;;37.08;15.13;;;;;;;;;;4998045;28;20816;-70
2021/01/02 05:52:08;;;;;;;35.35;14.65;;;;;;;;;;4998416;28;20059;-70
2021/01/02 05:54:39;;;;;;;38.10;14.68;;;;;;;;;;4996919;28;20031;-70
2021/01/02 05:57:05;;;;;;;39.78;15.70;;;;;;;;;;4990760;28;20058;-70
2021/01/02 05:59:31;;;;;;;32.50;14.07;;;;;;;;;;4981787;28;20062;-70
2021/01/02 06:01:58;;;;;;;33.58;13.45;;;;;;;;;;5002166;28;20061;-70
2021/01/02 06:04:25;;;;;;;38.30;14.88;;;;;;;;;;4997997;28;20041;-70
2021/01/02 06:07:07;;;;;;;36.67;14.18;;;;;;;;;;4982392;28;20051;-70
2021/01/02 06:09:34;;;;;;;38.47;16.63;;;;;;;;;;4997774;28;20031;-69
2021/01/02 06:12:03;;;;;;;36.53;15.02;;;;;;;;;;4978334;28;20066;-70
2021/01/02 06:14:32;;;;;;;33.08;15.13;;;;;;;;;;4994546;28;20047;-70
2021/01/02 06:17:03;;;;;;;35.88;15.40;;;;;;;;;;4990089;28;20055;-70
2021/01/02 06:19:29;;;;;;;36.65;14.30;;;;;;;;;;4991346;28;20057;-70
2021/01/02 06:21:55;;;;;;;36.88;13.88;;;;;;;;;;4978358;28;20043;-70
2021/01/02 06:24:21;;;;;;;30.65;12.85;;;;;;;;;;4986720;28;20035;-70
2021/01/02 06:26:47;;;;;;;39.90;14.02;;;;;;;;;;4990123;28;20058;-70
2021/01/02 06:29:13;;;;;;;33.38;14.43;;;;;;;;;;4985178;28;20035;-70
2021/01/02 06:31:39;;;;;;;37.58;15.18;;;;;;;;;;4987008;28;20035;-70
2021/01/02 06:34:06;;;;;;;38.63;15.07;;;;;;;;;;4977624;28;20058;-70
2021/01/02 06:36:35;;;;;;;33.67;15.75;;;;;;;;;;4993144;28;20063;-70
2021/01/02 06:39:23;;;;;;;31.85;13.52;;;;;;;;;;4958182;28;20050;-70
2021/01/02 06:41:52;;;;;;;30.63;13.75;;;;;;;;;;4960420;28;20099;-70
2021/01/02 06:44:43;;;;;;;31.02;14.15;;;;;;;;;;4975653;28;20054;-70
2021/01/02 06:47:20;;;;;;;27.35;13.20;;;;;;;;;;4976852;28;20070;-70
2021/01/02 06:49:47;;;;;;;22.83;11.30;;;;;;;;;;4976720;28;20050;-70
2021/01/02 06:52:32;;;;;;;24.17;12.60;;;;;;;;;;4944388;29;20051;-70
2021/01/02 06:55:23;;;;;;;27.10;12.13;;;;;;;;;;4956438;29;20651;-70
2021/01/02 06:57:50;;;;;;;27.63;12.55;;;;;;;;;;4951984;28;20058;-70
2021/01/02 07:00:20;;;;;;;22.90;12.10;;;;;;;;;;4974757;28;20113;-70
2021/01/02 07:02:48;;;;;;;24.65;12.65;;;;;;;;;;4970813;28;20051;-70
2021/01/02 07:05:42;;;;;;;26.65;12.75;;;;;;;;;;4956444;29;20055;-70
2021/01/02 07:08:42;;;;;;;26.42;12.32;;;;;;;;;;4965332;28;20502;-70
2021/01/02 07:11:27;;;;;;;28.35;12.77;;;;;;;;;;4955377;28;20048;-70
2021/01/02 07:14:20;;;;;;;30.17;13.75;;;;;;;;;;4956455;29;20080;-70
2021/01/02 07:16:54;;;;;;;28.58;13.02;;;;;;;;;;4952386;28;20047;-70
2021/01/02 07:19:29;;;;;;;33.60;14.73;;;;;;;;;;4956071;28;20051;-71
2021/01/02 07:21:56;;;;;;;33.63;15.43;;;;;;;;;;4969748;28;20082;-71
2021/01/02 07:24:36;;;;;;;29.65;13.77;;;;;;;;;;4960016;28;20058;-71
2021/01/02 07:27:06;;;;;;;27.52;12.82;;;;;;;;;;4954693;29;20054;-71
2021/01/02 07:29:34;;;;;;;25.13;12.38;;;;;;;;;;4956063;28;20491;-70
2021/01/02 07:32:07;;;;;;;27.65;13.25;;;;;;;;;;4954800;28;20055;-69
2021/01/02 07:34:33;;;;;;;27.13;13.68;;;;;;;;;;4955856;29;20086;-69
2021/01/02 07:37:07;;;;;;;25.55;12.55;;;;;;;;;;4923990;28;20506;-68
2021/01/02 07:39:33;;;;;;;27.58;13.00;;;;;;;;;;4939234;28;20125;-68
2021/01/02 07:42:10;;;;;;;28.15;13.40;;;;;;;;;;4972201;28;20110;-69
2021/01/02 07:44:39;;;;;;;32.28;15.10;;;;;;;;;;4967353;28;20106;-71
2021/01/02 07:47:08;;;;;;;28.70;13.98;;;;;;;;;;4957340;28;20082;-69
2021/01/02 07:49:35;;;;;;;27.98;13.20;;;;;;;;;;4947594;29;20106;-69
2021/01/02 07:52:01;;;;;;;28.40;12.65;;;;;;;;;;4967842;28;20133;-69
2021/01/02 07:54:31;;;;;;;26.20;12.77;;;;;;;;;;4970171;28;20098;-69
2021/01/02 07:56:58;;;;;;;29.20;13.85;;;;;;;;;;4936372;29;20059;-69
2021/01/02 07:59:30;;;;;;;32.58;15.10;;;;;;;;;;4936893;28;20062;-69
2021/01/02 08:02:01;;;;;;;29.25;14.35;;;;;;;;;;4953860;29;20055;-69
2021/01/02 08:04:28;;;;;;;31.88;15.32;;;;;;;;;;4936662;29;20738;-69
2021/01/02 08:07:05;;;;;;;30.67;14.68;;;;;;;;;;4936330;29;20051;-69
2021/01/02 08:09:33;;;;;;;29.55;14.40;;;;;;;;;;4946178;28;20498;-68
2021/01/02 08:12:05;;;;;;;27.48;13.18;;;;;;;;;;4971444;28;20466;-70
2021/01/02 08:14:34;;;;;;;26.13;13.60;;;;;;;;;;4948010;28;20107;-69
2021/01/02 08:17:05;;;;;;;30.20;14.48;;;;;;;;;;4977809;28;20055;-69
2021/01/02 08:19:53;;;;;;;30.63;14.55;;;;;;;;;;4972317;28;20109;-69
2021/01/02 08:22:29;;;;;;;27.17;13.18;;;;;;;;;;4958315;28;20054;-69
2021/01/02 08:25:00;;;;;;;26.15;12.85;;;;;;;;;;4971587;28;20117;-69
2021/01/02 08:27:28;;;;;;;27.25;13.60;;;;;;;;;;4955334;28;20055;-68
2021/01/02 08:30:02;;;;;;;30.02;14.27;;;;;;;;;;4971878;28;20605;-68
2021/01/02 08:32:28;;;;;;;32.17;14.82;;;;;;;;;;4971429;28;20053;-70
2021/01/02 08:34:54;;;;;;;36.90;15.25;;;;;;;;;;4956816;28;20580;-69
2021/01/02 08:37:21;;;;;;;34.50;15.45;;;;;;;;;;4973728;28;20051;-69
2021/01/02 08:39:48;;;;;;;31.80;16.00;;;;;;;;;;4972326;28;20073;-70
2021/01/02 08:42:14;;;;;;;38.15;17.85;;;;;;;;;;4972703;28;20190;-69
2021/01/02 08:44:46;;;;;;;33.30;15.98;;;;;;;;;;4970246;28;20047;-72
2021/01/02 08:47:39;;;;;;;39.38;15.75;;;;;;;;;;4937360;29;20502;-72
2021/01/02 08:50:13;;;;;;;33.37;14.93;;;;;;;;;;4952276;28;20055;-72
2021/01/02 08:52:39;;;;;;;38.83;16.85;;;;;;;;;;4937581;29;20055;-73
2021/01/02 08:55:11;;;;;;;38.15;17.10;;;;;;;;;;4953316;29;20125;-72
2021/01/02 08:57:46;;;;;;;38.47;16.92;;;;;;;;;;4937565;29;20091;-72
2021/01/02 09:00:15;;;;;;;51.38;20.90;;;;;;;;;;4970745;28;20074;-72
2021/01/02 09:02:44;;;;;;;44.80;18.92;;;;;;;;;;4973523;28;20058;-68
2021/01/02 09:05:14;;;;;;;47.03;20.38;;;;;;;;;;4951087;28;20399;-74
2021/01/02 09:07:52;;;;;;;38.25;16.88;;;;;;;;;;4954757;28;20109;-73
2021/01/02 09:10:24;;;;;;;47.63;19.10;;;;;;;;;;4970873;28;20047;-74
2021/01/02 09:13:19;;;;;;;45.97;16.90;;;;;;;;;;4971364;28;20046;-74
2021/01/02 09:15:55;;;;;;;38.38;16.80;;;;;;;;;;4971582;28;20585;-74
2021/01/02 09:18:27;;;;;;;33.75;16.52;;;;;;;;;;4972111;28;20054;-71
2021/01/02 09:20:57;;;;;;;37.97;17.70;;;;;;;;;;4971375;28;20051;-71
2021/01/02 09:23:33;;;;;;;33.90;16.08;;;;;;;;;;4965760;28;20286;-70
2021/01/02 09:26:01;;;;;;;32.03;16.67;;;;;;;;;;4945034;28;20114;-72
2021/01/02 09:28:27;;;;;;;35.33;16.52;;;;;;;;;;4961359;28;20054;-70
2021/01/02 09:30:54;;;;;;;33.13;14.93;;;;;;;;;;4959421;28;20533;-71
2021/01/02 09:33:20;;;;;;;32.35;16.25;;;;;;;;;;4960478;28;20113;-70
2021/01/02 09:35:46;;;;;;;30.48;14.50;;;;;;;;;;4961085;28;20683;-71
2021/01/02 09:38:12;;;;;;;44.35;15.32;;;;;;;;;;4959524;28;20051;-72
2021/01/02 09:40:43;;;;;;;36.38;16.50;;;;;;;;;;4962515;28;20118;-71
2021/01/02 09:43:11;;;;;;;34.92;14.63;;;;;;;;;;4978626;28;20051;-71
2021/01/02 09:45:38;;;;;;;33.20;15.05;;;;;;;;;;4944894;28;20105;-71
2021/01/02 09:48:05;;;;;;;35.08;16.83;;;;;;;;;;4959865;28;20494;-71
2021/01/02 09:52:58;;;;;;;37.65;15.55;;;;;;;;;;5005013;23;20505;-69
2021/01/02 09:55:24;;;;;;;35.90;16.50;;;;;;;;;;4980916;28;20390;-70
2021/01/02 09:57:50;;;;;;;33.63;15.60;;;;;;;;;;4984374;28;20469;-70
2021/01/02 10:00:17;;;;;;;28.90;14.75;;;;;;;;;;4983449;28;20050;-70
2021/01/02 10:02:44;;;;;;;30.35;14.77;;;;;;;;;;4981826;28;20113;-71
2021/01/02 10:05:12;;;;;;;29.60;15.07;;;;;;;;;;4983601;28;20476;-69
2021/01/02 10:07:39;;;;;;;28.88;15.25;;;;;;;;;;4982773;28;20086;-69
2021/01/02 10:10:05;;;;;;;30.33;15.73;;;;;;;;;;4983255;28;20563;-67
2021/01/02 10:12:32;;;;;;;32.22;15.35;;;;;;;;;;4982626;28;20465;-68
2021/01/02 10:14:58;;;;;;;32.55;16.25;;;;;;;;;;4988504;28;20112;-67
2021/01/02 10:17:27;;;;;;;29.83;14.63;;;;;;;;;;4983486;28;20331;-68
2021/01/02 10:19:54;;;;;;;24.77;13.52;;;;;;;;;;4984880;28;20502;-68
2021/01/02 10:22:20;;;;;;;22.30;12.82;;;;;;;;;;4983911;28;20569;-68
2021/01/02 10:24:48;;;;;;;21.45;12.80;;;;;;;;;;4981083;28;20102;-67
2021/01/02 10:27:14;;;;;;;20.73;11.85;;;;;;;;;;4991794;28;20128;-68
2021/01/02 10:29:44;;;;;;;18.88;11.27;;;;;;;;;;4993236;28;20081;-68
2021/01/02 10:32:11;;;;;;;21.40;12.80;;;;;;;;;;4993967;28;20058;-68
2021/01/02 10:34:37;;;;;;;21.50;12.07;;;;;;;;;;4994701;28;20050;-68
2021/01/02 10:37:04;;;;;;;22.00;12.38;;;;;;;;;;4995311;28;20104;-67
2021/01/02 10:39:30;;;;;;;19.45;12.10;;;;;;;;;;4995266;28;20085;-67
2021/01/02 10:41:56;;;;;;;18.90;11.82;;;;;;;;;;4994929;28;20054;-69
2021/01/02 10:44:22;;;;;;;18.08;11.20;;;;;;;;;;4994242;28;20065;-68
2021/01/02 10:46:52;;;;;;;21.92;12.73;;;;;;;;;;4995108;28;20552;-67
2021/01/02 10:49:20;;;;;;;18.70;11.95;;;;;;;;;;4983207;28;20086;-68
2021/01/02 10:51:46;;;;;;;17.27;11.63;;;;;;;;;;4975471;28;20062;-68
2021/01/02 10:54:14;;;;;;;20.08;11.23;;;;;;;;;;4975965;28;20046;-68
2021/01/02 10:56:47;;;;;;;18.52;12.35;;;;;;;;;;4975341;28;20079;-68
2021/01/02 10:59:13;;;;;;;;;;;;;;;;;;4976066;28;20109;-67
2021/01/02 11:01:43;;;;;;;20.38;12.93;;;;;;;;;;4975425;28;19926;-68
2021/01/02 11:04:09;;;;;;;18.55;11.57;;;;;;;;;;4990773;28;20105;-68
2021/01/02 11:06:38;;;;;;;20.27;11.77;;;;;;;;;;4986450;28;20134;-68
2021/01/02 11:09:05;;;;;;;20.77;12.38;;;;;;;;;;4983060;28;20521;-72
2021/01/02 11:11:32;;;;;;;21.70;13.75;;;;;;;;;;4986696;28;20042;-71
2021/01/02 11:13:59;;;;;;;21.73;12.38;;;;;;;;;;4982004;28;20101;-72
2021/01/02 11:16:36;;;;;;;23.60;12.23;;;;;;;;;;4981631;28;20055;-70
2021/01/02 11:19:03;;;;;;;20.05;12.00;;;;;;;;;;4982303;28;20109;-70
2021/01/02 11:21:29;;;;;;;19.90;12.20;;;;;;;;;;4980753;28;20059;-69
2021/01/02 11:23:57;;;;;;;22.55;13.07;;;;;;;;;;4985998;28;20069;-70
2021/01/02 11:26:23;;;;;;;21.65;12.70;;;;;;;;;;4980480;28;20506;-72
2021/01/02 11:28:49;;;;;;;20.63;12.93;;;;;;;;;;4982133;28;20046;-72
2021/01/02 11:31:16;;;;;;;22.08;14.10;;;;;;;;;;4984340;28;20506;-72
2021/01/02 11:33:42;;;;;;;24.10;13.70;;;;;;;;;;4983389;28;20120;-71
2021/01/02 11:36:08;;;;;;;21.90;12.77;;;;;;;;;;4964180;28;20054;-72
2021/01/02 11:38:34;;;;;;;20.25;12.13;;;;;;;;;;4964285;28;20046;-72
2021/01/02 11:41:01;;;;;;;20.23;12.70;;;;;;;;;;4980800;28;20101;-73
2021/01/02 11:43:28;;;;;;;21.92;13.60;;;;;;;;;;4983573;28;20050;-70
2021/01/02 11:45:54;;;;;;;20.25;12.70;;;;;;;;;;4981822;28;20497;-72
2021/01/02 11:48:22;;;;;;;20.88;11.90;;;;;;;;;;4980655;28;20549;-73
2021/01/02 11:50:49;;;;;;;20.92;12.88;;;;;;;;;;4965628;28;20113;-70
2021/01/02 11:53:16;;;;;;;26.05;13.38;;;;;;;;;;4980128;28;20062;-69
2021/01/02 11:55:42;;;;;;;23.52;12.77;;;;;;;;;;4984161;28;20492;-69
2021/01/02 11:58:09;;;;;;;21.35;13.13;;;;;;;;;;4983594;28;20054;-69
2021/01/02 12:00:35;;;;;;;23.30;13.65;;;;;;;;;;4985867;28;20047;-70
2021/01/02 12:03:02;;;;;;;27.70;14.93;;;;;;;;;;4979762;28;20101;-69
2021/01/02 12:05:28;;;;;;;22.55;13.43;;;;;;;;;;4981384;28;20081;-69
2021/01/02 12:07:55;;;;;;;23.35;13.10;;;;;;;;;;4978801;28;20098;-69
2021/01/02 12:10:21;;;;;;;24.52;13.88;;;;;;;;;;4981610;28;20521;-73
2021/01/02 12:12:52;;;;;;;24.85;13.15;;;;;;;;;;4980552;28;20513;-72
2021/01/02 12:15:19;;;;;;;24.73;13.65;;;;;;;;;;4963866;28;20058;-71
2021/01/02 12:17:46;;;;;;;24.05;13.88;;;;;;;;;;4979902;28;20054;-73
2021/01/02 12:20:12;;;;;;;22.95;12.82;;;;;;;;;;4981033;28;20047;-71
2021/01/02 12:22:42;;;;;;;23.63;13.73;;;;;;;;;;4980472;28;20059;-70
2021/01/02 12:25:09;;;;;;;21.67;13.23;;;;;;;;;;4983538;28;20134;-70
2021/01/02 12:27:36;;;;;;;24.58;14.70;;;;;;;;;;4985875;28;20051;-71
2021/01/02 12:30:04;;;;;;;25.35;14.00;;;;;;;;;;4977954;28;20059;-70
2021/01/02 12:32:30;;;;;;;25.65;14.25;;;;;;;;;;4980339;28;20050;-75
2021/01/02 12:34:57;;;;;;;25.77;14.32;;;;;;;;;;4982341;28;20502;-73
2021/01/02 12:37:23;;;;;;;26.23;14.88;;;;;;;;;;4981548;28;20096;-72
2021/01/02 12:39:50;;;;;;;24.48;14.25;;;;;;;;;;4980675;28;20042;-72
2021/01/02 12:42:16;;;;;;;25.88;13.57;;;;;;;;;;4985215;28;20390;-72
2021/01/02 12:44:47;;;;;;;24.35;13.82;;;;;;;;;;4980306;28;20051;-72
2021/01/02 12:47:19;;;;;;;22.48;13.07;;;;;;;;;;4984180;28;20432;-71
2021/01/02 12:49:47;;;;;;;21.92;13.43;;;;;;;;;;4981560;28;20046;-74
2021/01/02 12:52:14;;;;;;;22.52;13.63;;;;;;;;;;4961928;28;20114;-71
2021/01/02 12:54:42;;;;;;;23.27;13.93;;;;;;;;;;4983117;28;20477;-73
2021/01/02 12:57:08;;;;;;;23.73;14.60;;;;;;;;;;4977446;28;20050;-73
2021/01/02 12:59:36;;;;;;;24.67;13.93;;;;;;;;;;4983988;28;20047;-75
2021/01/02 13:02:10;;;;;;;25.08;14.30;;;;;;;;;;4981079;28;20130;-73
2021/01/02 13:04:40;;;;;;;23.70;13.32;;;;;;;;;;4996777;28;20051;-72
2021/01/02 13:07:07;;;;;;;22.90;13.90;;;;;;;;;;4994536;28;20058;-73
2021/01/02 13:09:34;;;;;;;25.35;15.05;;;;;;;;;;4979472;28;20042;-71
2021/01/02 13:12:01;;;;;;;22.88;13.65;;;;;;;;;;4980238;28;20145;-73
2021/01/02 13:14:29;;;;;;;22.00;14.13;;;;;;;;;;4979040;28;20113;-71
2021/01/02 13:16:58;;;;;;;23.00;13.82;;;;;;;;;;4982483;28;20548;-72
2021/01/02 13:19:25;;;;;;;23.63;13.35;;;;;;;;;;4981799;28;20042;-73
2021/01/02 13:21:57;;;;;;;24.25;13.52;;;;;;;;;;4963259;28;20060;-74
2021/01/02 13:24:26;;;;;;;22.83;12.88;;;;;;;;;;4993861;28;20615;-71
2021/01/02 13:26:54;;;;;;;26.08;13.70;;;;;;;;;;4981240;28;20054;-71
2021/01/02 13:29:23;;;;;;;23.95;13.93;;;;;;;;;;4979223;28;20050;-71
2021/01/02 13:31:54;;;;;;;20.92;13.10;;;;;;;;;;4978501;28;20089;-71
2021/01/02 13:34:21;;;;;;;22.10;12.48;;;;;;;;;;4983555;28;20074;-72
2021/01/02 13:36:48;;;;;;;24.90;13.57;;;;;;;;;;4977842;28;20059;-74
2021/01/02 13:39:19;;;;;;;22.50;13.35;;;;;;;;;;4978860;28;20050;-73
2021/01/02 13:41:45;;;;;;;24.05;13.52;;;;;;;;;;4978524;28;20386;-75
2021/01/02 13:44:12;;;;;;;22.40;13.80;;;;;;;;;;4980204;28;20497;-73
2021/01/02 13:46:39;;;;;;;24.73;13.52;;;;;;;;;;4978131;28;20105;-71
2021/01/02 13:49:05;;;;;;;23.10;13.30;;;;;;;;;;4981471;28;20076;-73
2021/01/02 13:51:32;;;;;;;21.30;13.18;;;;;;;;;;4977804;28;20051;-72
2021/01/02 13:54:01;;;;;;;22.83;13.40;;;;;;;;;;4978051;28;20145;-74
2021/01/02 13:56:39;;;;;;;20.20;12.25;;;;;;;;;;4978305;28;20051;-73
2021/01/02 13:59:22;;;;;;;21.10;12.63;;;;;;;;;;4978624;28;20063;-73
2021/01/02 14:01:49;;;;;;;18.77;11.73;;;;;;;;;;4976403;28;20065;-73
2021/01/02 14:04:18;;;;;;;20.23;11.85;;;;;;;;;;4977598;28;20130;-77
2021/01/02 14:06:50;;;;;;;19.67;11.65;;;;;;;;;;4975685;28;20047;-73
2021/01/02 14:09:23;;;;;;;20.13;11.85;;;;;;;;;;4982274;28;20050;-75
2021/01/02 14:11:51;;;;;;;19.77;12.00;;;;;;;;;;4977378;28;20078;-73
2021/01/02 14:14:18;;;;;;;20.30;11.93;;;;;;;;;;4978208;28;20066;-74
2021/01/02 14:16:51;;;;;;;20.55;11.48;;;;;;;;;;4993707;28;20506;-74
2021/01/02 14:19:19;;;;;;;18.00;11.30;;;;;;;;;;4980191;28;20066;-74
2021/01/02 14:21:52;;;;;;;19.10;11.93;;;;;;;;;;4981748;28;20050;-76
2021/01/02 14:24:37;;;;;;;18.58;10.95;;;;;;;;;;4987105;28;20051;-76
2021/01/02 14:27:19;;;;;;;16.30;10.20;;;;;;;;;;4991336;28;20051;-73
2021/01/02 14:29:50;;;;;;;20.05;12.40;;;;;;;;;;4981759;28;20478;-71
2021/01/02 14:32:16;;;;;;;19.40;11.15;;;;;;;;;;4983210;28;20043;-70
2021/01/02 14:34:43;;;;;;;17.77;10.77;;;;;;;;;;4982420;28;20070;-70
2021/01/02 14:37:10;;;;;;;19.13;11.77;;;;;;;;;;4980492;28;20050;-70